Thomas, South Dakota
Current Conditions -  °F | °C
As of 3:53 PM on Thursday 23 Oct 2014 (Local Time) from KATY Reporting Station
Clear Clear  
Wind Chill: 68°   Ceiling: Unl
Heat Index: 68°   Visibility: 10mi
Dew Point: 43°   Wind: 13mph
Humidity: 40%   Direction: 210°SSW
Pressure: 29.92"   Gusts: NA
Location:  44.6748°N, 97.2476°W
Report Text: KATY 232053Z AUTO 21011KT 10SM CLR 20/06 A2992 RMK AO2 SLP134 T02000061 56019
Loading
Personal Weather Stations






























Interactive Weather Map
Tropical Storm Tracking
New forecast layout! Learn more

10-Day Weather Forecast

Advertisements
Track Severe Weather on mobile